Time;durP1;ratioP1;P1;durP2;ratioP2;P2;SDS_P1;SDS_P2;PMS_P1;PMS_P2;Temp;Humidity;BMP_temperature;BMP_pressure;BME280_temperature;BME280_humidity;BME280_pressure;Samples;Min_cycle;Max_cycle;Signal;HPM_P1;HPM_P2
2023/06/19 00:00:12;;;;;;;;;;;21.80;44.30;;;21.07;44.06;101007.31;12242364;19;20274;-82
2023/06/19 00:04:14;;;;;;;;;;;21.70;44.30;;;21.00;44.08;101009.72;12237067;19;19919;-82
2023/06/19 00:08:15;;;;;;;;;;;21.70;44.70;;;20.97;44.46;101024.13;12253557;19;19918;-83
2023/06/19 00:12:17;;;;;;;;;;;21.60;44.30;;;20.76;44.46;101005.72;12254618;19;19911;-82
2023/06/19 00:16:19;;;;;;;;;;;21.50;44.30;;;20.85;44.23;101027.94;12254138;19;19931;-82
2023/06/19 00:20:20;;;;;;;;;;;21.40;44.40;;;20.76;44.68;101026.13;12256188;19;19911;-82
2023/06/19 00:24:22;;;;;;;;;;;21.40;44.50;;;20.67;44.19;101025.19;12248637;19;19923;-82
2023/06/19 00:28:24;;;;;;;;;;;21.30;44.50;;;20.65;44.33;101021.00;12255779;19;19919;-82
2023/06/19 00:32:25;;;;;;;;;;;21.30;44.70;;;20.57;44.23;101013.75;12252913;19;19926;-83
2023/06/19 00:36:26;;;;;;;;;;;21.20;44.60;;;20.52;44.56;101023.91;12254053;19;19939;-83
2023/06/19 00:40:32;;;;;;;;;;;21.20;44.60;;;20.48;44.58;101017.22;12253332;19;19919;-83
2023/06/19 00:44:34;;;;;;;;;;;21.10;44.70;;;20.42;45.04;101020.47;12248451;19;20329;-82
2023/06/19 00:48:36;;;;;;;;;;;21.00;44.80;;;20.32;44.48;100996.56;12253024;19;19918;-82
2023/06/19 00:52:38;;;;;;;;;;;21.00;44.80;;;20.43;44.71;101030.06;12251729;19;19947;-83
2023/06/19 00:56:41;;;;;;;;;;;21.00;44.90;;;20.32;44.95;100999.22;12255199;19;19918;-82
2023/06/19 01:00:42;;;;;;;;;;;21.00;45.00;;;20.38;44.94;101021.69;12251091;19;20007;-82
2023/06/19 01:04:43;;;;;;;;;;;21.00;45.10;;;20.38;45.23;101027.00;12253188;19;19918;-82
2023/06/19 01:08:48;;;;;;;;;;;21.00;45.10;;;20.39;44.87;101023.38;12254208;19;19919;-82
2023/06/19 01:13:02;;;;;;;;;;;21.00;45.30;;;20.36;45.03;101018.34;12248057;19;20238;-82
2023/06/19 01:17:04;;;;;;;;;;;21.00;45.40;;;20.36;45.08;101013.03;12250443;19;19938;-82
2023/06/19 01:21:17;;;;;;;;;;;21.00;45.40;;;20.34;45.33;101014.03;12244913;19;19987;-83
2023/06/19 01:25:19;;;;;;;;;;;21.00;45.30;;;20.26;45.17;100997.97;12251110;19;19919;-83
2023/06/19 01:29:20;;;;;;;;;;;21.00;45.40;;;20.26;44.98;101000.63;12250699;19;19919;-82
2023/06/19 01:33:26;;;;;;;;;;;21.00;45.40;;;20.17;45.21;100987.38;12247846;19;19915;-82
2023/06/19 01:37:28;;;;;;;;;;;20.90;45.50;;;20.20;45.07;100998.56;12248730;19;19919;-83
2023/06/19 01:41:30;;;;;;;;;;;20.90;45.40;;;20.10;45.35;100973.84;12248336;19;20588;-82
2023/06/19 01:45:32;;;;;;;;;;;20.90;45.50;;;20.14;45.17;100985.84;12249565;19;19938;-82
2023/06/19 01:49:35;;;;;;;;;;;20.90;45.60;;;19.99;45.09;100968.69;12250113;19;19919;-82
2023/06/19 01:53:38;;;;;;;;;;;20.80;45.50;;;20.14;45.36;100990.31;12248069;19;19936;-83
2023/06/19 01:57:40;;;;;;;;;;;20.80;45.60;;;20.00;45.57;100965.88;12249406;19;19923;-83
2023/06/19 02:01:42;;;;;;;;;;;20.80;45.50;;;20.01;45.47;100972.03;12247570;19;20261;-83
2023/06/19 02:05:43;;;;;;;;;;;20.80;45.50;;;20.05;45.75;100978.72;12250237;19;19911;-82
2023/06/19 02:09:45;;;;;;;;;;;20.80;45.50;;;19.89;45.74;100950.97;12248967;19;20252;-82
2023/06/19 02:13:47;;;;;;;;;;;20.70;45.50;;;20.04;45.65;100971.78;12246231;19;19919;-83
2023/06/19 02:17:49;;;;;;;;;;;20.70;45.60;;;19.96;45.78;100961.03;12250775;19;19925;-82
2023/06/19 02:21:50;;;;;;;;;;;20.70;45.60;;;20.01;45.91;100961.41;12247696;19;19915;-83
2023/06/19 02:25:52;;;;;;;;;;;20.70;45.70;;;19.96;45.62;100953.06;12250216;19;19933;-83
2023/06/19 02:29:54;;;;;;;;;;;20.70;45.70;;;19.99;45.72;100958.09;12246936;19;19934;-83
2023/06/19 02:33:55;;;;;;;;;;;20.70;45.80;;;19.94;45.56;100949.72;12244280;19;19915;-83
2023/06/19 02:37:57;;;;;;;;;;;20.70;45.90;;;19.92;45.74;100960.44;12242691;19;19915;-82
2023/06/19 02:41:59;;;;;;;;;;;20.70;45.80;;;19.87;46.15;100949.44;12242971;19;19922;-83
2023/06/19 02:46:03;;;;;;;;;;;20.70;45.80;;;19.92;45.67;100954.31;12245254;19;20192;-82
2023/06/19 02:50:05;;;;;;;;;;;20.70;46.00;;;19.88;45.90;100945.81;12244945;19;19923;-83
2023/06/19 02:54:06;;;;;;;;;;;20.60;46.00;;;19.70;45.94;100927.13;12243103;19;19907;-83
2023/06/19 02:58:08;;;;;;;;;;;20.60;45.90;;;19.73;46.00;100932.13;12246221;19;19914;-83
2023/06/19 03:02:13;;;;;;;;;;;20.60;45.90;;;19.82;45.81;100952.50;12243410;19;19911;-82
2023/06/19 03:06:17;;;;;;;;;;;20.60;45.90;;;19.83;46.23;100948.88;12244563;19;19938;-83
2023/06/19 03:10:19;;;;;;;;;;;20.60;46.00;;;19.81;46.05;100948.16;12245060;19;20357;-83
2023/06/19 03:14:21;;;;;;;;;;;20.50;45.90;;;19.73;46.00;100940.09;12243711;19;20340;-83
2023/06/19 03:18:23;;;;;;;;;;;20.50;46.00;;;19.77;45.97;100954.75;12246082;19;20264;-83
2023/06/19 03:22:25;;;;;;;;;;;20.50;46.00;;;19.74;45.93;100952.38;12243212;19;20008;-83
2023/06/19 03:26:27;;;;;;;;;;;20.60;46.10;;;19.78;46.02;100959.06;12245343;19;20620;-82
2023/06/19 03:30:33;;;;;;;;;;;20.60;46.20;;;19.79;46.32;100963.38;12244023;19;19943;-83
2023/06/19 03:34:34;;;;;;;;;;;20.60;46.20;;;19.66;46.34;100949.56;12240649;19;19922;-83
2023/06/19 03:38:40;;;;;;;;;;;20.60;46.30;;;19.76;46.26;100965.47;12244417;19;19930;-82
2023/06/19 03:42:44;;;;;;;;;;;20.60;46.20;;;19.70;46.51;100969.50;12253466;19;19980;-83
2023/06/19 03:46:47;;;;;;;;;;;20.50;46.30;;;19.69;46.27;100975.78;12258303;19;19922;-83
2023/06/19 03:50:49;;;;;;;;;;;20.50;46.20;;;19.65;46.48;100977.00;12253981;19;19956;-83
2023/06/19 03:54:50;;;;;;;;;;;20.50;46.20;;;19.70;46.29;100990.72;12255577;19;19929;-83
2023/06/19 03:58:53;;;;;;;;;;;20.50;46.40;;;19.60;46.47;100965.97;12256572;19;19918;-83
2023/06/19 04:02:56;;;;;;;;;;;20.50;46.60;;;19.72;46.75;100988.75;12252574;19;19932;-83
2023/06/19 04:06:59;;;;;;;;;;;20.50;46.70;;;19.75;46.56;100995.59;12251207;19;19914;-83
2023/06/19 04:11:00;;;;;;;;;;;20.50;46.70;;;19.74;46.59;100983.31;12245511;19;19927;-83
2023/06/19 04:15:04;;;;;;;;;;;20.50;46.80;;;19.70;46.86;100960.72;12255964;19;19911;-83
2023/06/19 04:19:05;;;;;;;;;;;20.60;46.90;;;19.71;46.73;100957.09;12254861;19;19925;-84
2023/06/19 04:23:07;;;;;;;;;;;20.60;46.70;;;19.75;46.78;100961.16;12248743;19;20266;-83
2023/06/19 04:27:09;;;;;;;;;;;20.70;46.80;;;19.85;46.74;100962.84;12253358;19;19939;-83
2023/06/19 04:31:10;;;;;;;;;;;20.60;46.90;;;19.78;46.76;100935.19;12250193;19;19931;-83
2023/06/19 04:35:11;;;;;;;;;;;20.70;47.00;;;19.79;47.00;100936.03;12251408;19;19910;-83
2023/06/19 04:39:14;;;;;;;;;;;20.70;47.20;;;19.82;47.01;100943.69;12254803;19;20350;-83
2023/06/19 04:43:16;;;;;;;;;;;20.70;47.40;;;19.84;47.22;100941.75;12249432;19;19911;-83
2023/06/19 04:47:20;;;;;;;;;;;20.70;47.30;;;19.94;46.87;100957.69;12254239;19;19933;-83
2023/06/19 04:51:21;;;;;;;;;;;20.80;47.40;;;19.87;47.10;100949.44;12253779;19;19942;-83
2023/06/19 04:55:25;;;;;;;;;;;20.80;47.50;;;19.95;46.93;100956.69;12253288;19;20253;-83
2023/06/19 04:59:26;;;;;;;;;;;20.90;47.60;;;20.02;47.22;100953.34;12254438;19;19962;-84
2023/06/19 05:03:28;;;;;;;;;;;21.00;47.50;;;20.15;46.98;100968.97;12250896;19;19974;-83
2023/06/19 05:07:31;;;;;;;;;;;21.00;47.60;;;20.25;47.13;100987.50;12252140;19;19923;-84
2023/06/19 05:11:32;;;;;;;;;;;21.10;47.50;;;20.27;47.07;100977.59;12253649;19;19915;-83
2023/06/19 05:15:34;;;;;;;;;;;21.20;47.50;;;20.36;47.52;100991.81;12247879;19;20000;-84
2023/06/19 05:19:35;;;;;;;;;;;21.20;47.50;;;20.36;47.30;100991.81;12251011;19;19925;-84
2023/06/19 05:23:38;;;;;;;;;;;21.30;47.40;;;20.45;47.24;100991.00;12240759;19;19927;-84
2023/06/19 05:27:39;;;;;;;;;;;21.40;47.50;;;20.49;47.38;100992.34;12251067;19;19919;-83
2023/06/19 05:31:41;;;;;;;;;;;21.40;47.50;;;20.54;47.19;100992.81;12249507;19;19923;-84
2023/06/19 05:35:43;;;;;;;;;;;21.50;47.50;;;20.55;47.51;100997.16;12250269;19;19922;-84
2023/06/19 05:39:44;;;;;;;;;;;21.50;47.50;;;20.63;47.38;100999.94;12247834;19;19923;-83
2023/06/19 05:43:46;;;;;;;;;;;21.60;47.50;;;20.66;47.59;100999.63;12246114;19;19949;-84
2023/06/19 05:47:47;;;;;;;;;;;21.60;47.60;;;20.73;47.63;101002.53;12249578;19;19947;-84
2023/06/19 05:51:48;;;;;;;;;;;21.70;47.60;;;20.75;47.66;101000.56;12246390;19;20345;-84
2023/06/19 05:55:50;;;;;;;;;;;21.70;47.70;;;20.82;47.50;101003.47;12250241;19;19994;-84
2023/06/19 05:59:52;;;;;;;;;;;21.80;48.00;;;20.91;47.63;101014.09;12248546;19;19977;-84
2023/06/19 06:03:54;;;;;;;;;;;21.80;47.90;;;20.94;47.42;101011.13;12241332;19;19953;-83
2023/06/19 06:07:56;;;;;;;;;;;21.90;47.80;;;20.95;47.85;100990.72;12249077;19;19919;-83
2023/06/19 06:11:57;;;;;;;;;;;21.90;47.90;;;21.01;47.90;100992.81;12246501;19;20199;-84
2023/06/19 06:15:59;;;;;;;;;;;22.00;47.80;;;21.09;47.79;100979.66;12242603;19;19927;-85
2023/06/19 06:20:00;;;;;;;;;;;22.10;47.70;;;21.17;47.81;100985.06;12243062;19;19915;-84
2023/06/19 06:24:02;;;;;;;;;;;22.10;47.80;;;21.21;47.73;100978.44;12237578;19;19914;-83
2023/06/19 06:28:03;;;;;;;;;;;22.20;47.90;;;21.31;48.01;100994.34;12238992;19;20257;-84
2023/06/19 06:32:09;;;;;;;;;;;22.30;48.00;;;21.37;48.02;100998.22;12234865;19;20279;-83
2023/06/19 06:36:10;;;;;;;;;;;22.30;47.80;;;21.38;47.70;100997.25;12246436;19;19918;-83
2023/06/19 06:40:12;;;;;;;;;;;22.40;47.70;;;21.39;47.84;100985.69;12245408;19;20329;-83
2023/06/19 06:44:14;;;;;;;;;;;22.50;47.70;;;21.51;48.04;100995.09;12246362;19;19923;-85
2023/06/19 06:48:15;;;;;;;;;;;22.50;48.00;;;21.58;47.67;101001.50;12246971;19;19934;-83
2023/06/19 06:52:17;;;;;;;;;;;22.60;48.00;;;21.64;47.83;101000.06;12245964;19;20268;-84
2023/06/19 06:56:19;;;;;;;;;;;22.60;47.70;;;21.66;47.63;100992.78;12247116;19;20392;-83
2023/06/19 07:00:20;;;;;;;;;;;22.70;48.00;;;21.76;47.84;101008.63;12247192;19;19948;-82
2023/06/19 07:04:22;;;;;;;;;;;22.80;47.90;;;21.77;47.77;101002.34;12246840;19;19927;-82
2023/06/19 07:08:23;;;;;;;;;;;22.80;47.70;;;21.92;48.15;101018.59;12246369;19;19923;-82
2023/06/19 07:12:25;;;;;;;;;;;22.80;47.80;;;21.85;47.87;100997.13;12247010;19;19911;-82
2023/06/19 07:16:27;;;;;;;;;;;22.90;47.70;;;22.04;48.30;101012.91;12246297;19;19923;-81
2023/06/19 07:20:28;;;;;;;;;;;23.00;47.90;;;22.11;48.01;101013.13;12246315;19;20266;-83
2023/06/19 07:24:30;;;;;;;;;;;23.10;47.80;;;22.20;48.23;101020.25;12243922;19;19918;-82
2023/06/19 07:28:32;;;;;;;;;;;23.10;47.90;;;22.28;48.16;101016.81;12247430;19;19931;-82
2023/06/19 07:32:33;;;;;;;;;;;23.20;48.00;;;22.35;47.86;101015.19;12245953;19;19919;-82
2023/06/19 07:36:35;;;;;;;;;;;23.30;47.90;;;22.43;48.13;101007.28;12246772;19;20252;-81
2023/06/19 07:40:36;;;;;;;;;;;23.40;48.00;;;22.54;47.90;101016.81;12244919;19;19919;-82
2023/06/19 07:44:38;;;;;;;;;;;23.50;47.80;;;22.63;47.94;101015.91;12241985;19;19926;-82
2023/06/19 07:48:40;;;;;;;;;;;23.60;48.10;;;22.71;48.33;101004.44;12243891;19;20376;-81
2023/06/19 07:52:42;;;;;;;;;;;23.70;47.90;;;22.80;48.18;101016.84;12241769;19;20332;-82
2023/06/19 07:56:43;;;;;;;;;;;23.80;47.90;;;22.87;48.31;101017.03;12242688;19;19998;-82
2023/06/19 08:00:44;;;;;;;;;;;23.90;48.00;;;23.00;48.28;101019.31;12243444;19;19911;-81
2023/06/19 08:04:46;;;;;;;;;;;24.00;48.00;;;22.97;47.88;101004.47;12243010;19;19919;-82
2023/06/19 08:08:48;;;;;;;;;;;24.00;47.70;;;23.18;48.43;101020.06;12242248;19;19911;-82
2023/06/19 08:12:49;;;;;;;;;;;24.20;47.90;;;23.30;47.95;101032.09;12240606;19;19927;-81
2023/06/19 08:16:51;;;;;;;;;;;24.30;47.90;;;23.36;47.99;101015.50;12244240;19;19919;-82
2023/06/19 08:20:53;;;;;;;;;;;24.40;47.90;;;23.48;48.18;101020.53;12242420;19;19922;-81
2023/06/19 08:24:54;;;;;;;;;;;24.50;48.10;;;23.55;48.16;101024.22;12234932;19;19926;-81
2023/06/19 08:28:56;;;;;;;;;;;24.60;48.10;;;23.29;47.93;100961.16;12249876;19;19922;-81
2023/06/19 08:32:58;;;;;;;;;;;24.70;47.90;;;23.74;48.26;101029.28;12250653;19;19931;-82
2023/06/19 08:36:59;;;;;;;;;;;24.80;48.20;;;23.85;48.34;101023.66;12252113;19;19919;-82
2023/06/19 08:41:01;;;;;;;;;;;24.90;48.30;;;23.95;47.93;101017.31;12241155;19;19947;-82
2023/06/19 08:45:02;;;;;;;;;;;24.90;48.00;;;23.97;48.19;101001.97;12251622;19;19949;-81
2023/06/19 08:49:06;;;;;;;;;;;25.10;47.70;;;24.15;48.32;101015.16;12250965;19;20247;-82
2023/06/19 08:53:07;;;;;;;;;;;25.10;47.90;;;24.24;48.27;101012.31;12247832;19;19930;-82
2023/06/19 08:57:10;;;;;;;;;;;25.20;47.60;;;24.29;48.03;101007.31;12252001;19;19919;-81
2023/06/19 09:01:16;;;;;;;;;;;25.30;47.60;;;24.41;48.01;101015.84;12246201;19;19940;-82
2023/06/19 09:05:19;;;;;;;;;;;25.40;47.50;;;24.49;48.17;101015.00;12247684;19;20269;-82
2023/06/19 09:09:22;;;;;;;;;;;25.50;47.60;;;24.58;47.79;101019.34;12246304;19;19911;-82
2023/06/19 09:13:23;;;;;;;;;;;25.60;47.40;;;24.65;48.22;101024.84;12247942;19;19918;-82
2023/06/19 09:17:26;;;;;;;;;;;25.70;47.40;;;24.69;48.15;101020.84;12248971;19;20043;-83
2023/06/19 09:21:31;;;;;;;;;;;25.70;47.40;;;24.70;47.92;101014.47;12251347;19;19914;-83
2023/06/19 09:25:50;;;;;;;;;;;25.80;47.40;;;24.82;47.88;101018.47;12249913;19;19931;-82
2023/06/19 09:29:51;;;;;;;;;;;25.90;47.40;;;24.95;48.27;101024.13;12247337;19;20337;-81
2023/06/19 09:33:53;;;;;;;;;;;26.00;47.30;;;25.04;48.18;101014.22;12240021;19;20625;-82
2023/06/19 09:37:55;;;;;;;;;;;26.10;47.40;;;25.11;48.01;101019.69;12239334;19;19923;-82
2023/06/19 09:41:59;;;;;;;;;;;26.20;47.40;;;25.25;48.22;101019.03;12241915;19;19921;-82
2023/06/19 09:46:02;;;;;;;;;;;26.30;47.50;;;25.34;48.14;101012.63;12245194;19;19918;-82
2023/06/19 09:50:05;;;;;;;;;;;26.40;47.40;;;25.44;47.73;101011.56;12246959;19;19915;-82
2023/06/19 09:54:09;;;;;;;;;;;26.50;47.40;;;25.50;47.76;101006.38;12241515;19;20281;-81
2023/06/19 09:58:10;;;;;;;;;;;26.60;47.20;;;25.61;48.01;101005.97;12244552;19;19919;-82
2023/06/19 10:02:13;;;;;;;;;;;26.70;47.10;;;25.65;47.65;101014.47;12241166;19;19937;-81
2023/06/19 10:06:16;;;;;;;;;;;26.70;47.20;;;25.78;47.84;101025.41;12243521;19;19926;-81
2023/06/19 10:10:25;;;;;;;;;;;26.80;47.10;;;25.89;47.96;101031.41;12246533;19;19926;-82
2023/06/19 10:14:26;;;;;;;;;;;26.90;47.20;;;25.90;47.98;101017.03;12244086;19;19915;-81
2023/06/19 10:18:28;;;;;;;;;;;26.90;47.30;;;25.97;47.74;101024.16;12248153;19;19926;-82
2023/06/19 10:22:31;;;;;;;;;;;27.00;47.30;;;26.05;47.55;101020.59;12247473;19;19919;-82
2023/06/19 10:26:34;;;;;;;;;;;27.00;47.20;;;26.13;47.51;101011.66;12247155;19;19911;-82
2023/06/19 10:30:36;;;;;;;;;;;27.10;46.90;;;26.16;47.36;101004.09;12248182;19;20547;-83
2023/06/19 10:34:38;;;;;;;;;;;27.20;46.90;;;26.20;47.53;100997.38;12244177;19;19930;-82
2023/06/19 10:38:39;;;;;;;;;;;27.20;46.80;;;26.25;47.40;100983.47;12247937;19;19986;-81
2023/06/19 10:42:46;;;;;;;;;;;27.20;46.80;;;26.35;47.77;100975.97;12242992;19;19951;-82
2023/06/19 10:46:47;;;;;;;;;;;27.30;46.60;;;26.43;47.78;100980.44;12248292;19;19925;-82
2023/06/19 10:50:50;;;;;;;;;;;27.40;46.60;;;26.52;47.66;100975.84;12242782;19;19918;-82
2023/06/19 10:54:54;;;;;;;;;;;27.50;46.70;;;26.57;47.31;100962.72;12237993;19;19922;-82
2023/06/19 10:59:14;;;;;;;;;;;27.60;46.60;;;26.72;47.14;100966.25;12237161;19;20371;-85
2023/06/19 11:03:15;;;;;;;;;;;27.70;46.40;;;26.81;47.35;100967.00;12250713;19;19946;-84
2023/06/19 11:07:17;;;;;;;;;;;27.70;46.50;;;26.70;47.29;100930.78;12255302;19;19960;-85
2023/06/19 11:11:20;;;;;;;;;;;27.80;46.70;;;26.97;47.29;100963.28;12255535;19;19946;-84
2023/06/19 11:15:32;;;;;;;;;;;27.90;46.30;;;26.99;47.13;100962.09;12256483;19;19926;-84
2023/06/19 11:19:34;;;;;;;;;;;27.90;45.80;;;27.08;47.21;100973.53;12255088;19;19927;-84
2023/06/19 11:23:36;;;;;;;;;;;28.00;45.80;;;27.08;47.10;100960.13;12253084;19;19915;-84
2023/06/19 11:27:39;;;;;;;;;;;28.10;46.10;;;27.22;47.23;100964.69;12254102;19;19922;-84
2023/06/19 11:31:40;;;;;;;;;;;28.10;46.00;;;27.24;46.97;100940.34;12251847;19;19978;-84
2023/06/19 11:35:47;;;;;;;;;;;28.20;45.30;;;27.28;46.84;100934.41;12252083;19;19996;-85
2023/06/19 11:39:50;;;;;;;;;;;28.30;45.70;;;27.44;47.10;100944.09;12251912;19;19944;-84
2023/06/19 11:44:00;;;;;;;;;;;28.40;46.00;;;27.54;46.81;100938.38;12245815;19;19939;-82
2023/06/19 11:48:05;;;;;;;;;;;28.50;46.20;;;27.63;46.72;100929.22;12238133;19;19922;-85
2023/06/19 11:52:07;;;;;;;;;;;28.60;45.30;;;27.82;47.08;100949.25;12247224;19;20238;-84
2023/06/19 11:56:09;;;;;;;;;;;28.70;45.20;;;27.88;46.69;100937.72;12247477;19;19922;-82
2023/06/19 12:00:15;;;;;;;;;;;28.80;45.60;;;27.93;46.35;100929.91;12245987;19;19982;-83
2023/06/19 12:04:17;;;;;;;;;;;28.90;45.80;;;27.98;46.20;100937.41;12255444;19;19926;-84
2023/06/19 12:08:19;;;;;;;;;;;28.90;45.60;;;28.01;46.51;100945.88;12264990;19;19941;-83
2023/06/19 12:12:20;;;;;;;;;;;28.90;45.60;;;28.04;46.42;100944.66;12259577;19;19918;-84
2023/06/19 12:16:22;;;;;;;;;;;29.00;45.30;;;28.09;46.43;100939.56;12263003;19;19944;-84
2023/06/19 12:20:24;;;;;;;;;;;29.00;45.60;;;28.13;46.27;100943.50;12258713;19;19988;-84
2023/06/19 12:24:25;;;;;;;;;;;29.10;45.70;;;28.14;46.47;100923.69;12253602;19;19915;-83
2023/06/19 12:28:27;;;;;;;;;;;29.10;44.40;;;28.22;46.37;100936.97;12257679;19;19922;-84
2023/06/19 12:32:29;;;;;;;;;;;29.10;44.60;;;28.27;46.29;100930.16;12256119;19;19922;-82
2023/06/19 12:36:31;;;;;;;;;;;29.20;45.50;;;28.33;46.34;100924.03;12258595;19;19968;-82
2023/06/19 12:40:33;;;;;;;;;;;29.30;45.40;;;28.52;45.99;100933.28;12256315;19;19923;-83
2023/06/19 12:44:35;;;;;;;;;;;29.30;45.20;;;28.62;46.13;100934.53;12252177;19;19923;-83
2023/06/19 12:48:36;;;;;;;;;;;29.50;45.10;;;28.73;46.09;100913.50;12248579;19;19947;-82
2023/06/19 12:52:37;;;;;;;;;;;29.60;45.30;;;28.88;46.32;100916.91;12246071;19;20261;-83
2023/06/19 12:56:39;;;;;;;;;;;29.70;45.10;;;28.97;46.26;100917.53;12253459;19;19919;-83
2023/06/19 13:00:40;;;;;;;;;;;29.80;44.90;;;29.18;45.61;100922.00;12249690;19;19940;-83
2023/06/19 13:04:41;;;;;;;;;;;30.00;44.80;;;29.30;45.89;100913.16;12257125;19;19923;-83
2023/06/19 13:08:45;;;;;;;;;;;30.20;42.50;;;29.44;45.59;100924.75;12258311;19;19922;-82
2023/06/19 13:12:46;;;;;;;;;;;30.30;43.90;;;29.59;45.67;100908.41;12250644;19;19915;-81
2023/06/19 13:16:48;;;;;;;;;;;30.50;42.30;;;29.73;45.37;100915.50;12253961;19;19940;-84
2023/06/19 13:20:49;;;;;;;;;;;30.60;39.20;;;29.85;45.04;100901.44;12258472;19;19919;-83
2023/06/19 13:24:51;;;;;;;;;;;30.70;41.80;;;29.90;44.86;100897.06;12256874;19;20377;-83
2023/06/19 13:28:52;;;;;;;;;;;30.80;41.70;;;29.96;44.48;100893.53;12290960;19;19918;-83
2023/06/19 13:32:54;;;;;;;;;;;30.90;40.60;;;29.99;44.31;100893.13;12270390;19;19938;-83
2023/06/19 13:36:55;;;;;;;;;;;30.90;42.10;;;30.02;44.24;100885.66;12262016;19;20284;-84
2023/06/19 13:40:57;;;;;;;;;;;30.90;41.70;;;30.14;44.35;100895.59;12257757;19;19943;-83
2023/06/19 13:44:59;;;;;;;;;;;31.00;41.50;;;30.26;44.23;100887.72;12260045;19;19926;-84
2023/06/19 13:49:00;;;;;;;;;;;31.10;42.30;;;30.31;44.60;100874.44;12256268;19;20373;-84
2023/06/19 13:53:02;;;;;;;;;;;31.20;42.60;;;30.52;44.32;100888.72;12254341;19;19995;-83
2023/06/19 13:57:04;;;;;;;;;;;31.40;41.10;;;30.53;44.26;100868.78;12260212;19;19927;-84
2023/06/19 14:01:05;;;;;;;;;;;31.40;42.60;;;30.68;43.95;100890.06;12255439;19;19919;-84
2023/06/19 14:05:08;;;;;;;;;;;31.60;41.10;;;30.75;44.13;100890.88;12253897;19;19923;-83
2023/06/19 14:09:09;;;;;;;;;;;31.60;42.50;;;30.78;43.98;100888.59;12254147;19;19919;-83
2023/06/19 14:13:11;;;;;;;;;;;31.70;42.00;;;30.74;43.85;100867.66;12253714;19;20355;-82
2023/06/19 14:17:13;;;;;;;;;;;31.60;39.50;;;30.80;43.74;100869.50;12249612;19;19919;-84
2023/06/19 14:21:15;;;;;;;;;;;31.70;40.50;;;30.81;43.56;100869.34;12249107;19;20395;-84
2023/06/19 14:25:17;;;;;;;;;;;31.70;41.20;;;30.85;43.19;100875.94;12245373;19;19928;-84
2023/06/19 14:29:18;;;;;;;;;;;31.70;40.40;;;30.89;43.44;100870.09;12254592;19;19950;-84
2023/06/19 14:33:20;;;;;;;;;;;31.70;41.90;;;30.95;43.20;100875.47;12253748;19;20264;-83
2023/06/19 14:37:21;;;;;;;;;;;31.80;40.90;;;31.00;43.34;100882.91;12249826;19;20252;-83
2023/06/19 14:41:23;;;;;;;;;;;31.80;40.70;;;31.03;43.05;100874.41;12252045;19;19915;-84
2023/06/19 14:45:24;;;;;;;;;;;31.90;41.50;;;31.08;42.90;100886.19;12249427;19;20380;-84
2023/06/19 14:49:25;;;;;;;;;;;31.90;40.70;;;31.13;43.05;100895.50;12250851;19;19931;-83
2023/06/19 14:53:27;;;;;;;;;;;31.90;41.10;;;31.08;42.78;100888.06;12248142;19;20269;-84
2023/06/19 14:57:29;;;;;;;;;;;31.90;40.90;;;31.15;42.91;100894.25;12248377;19;19929;-82
2023/06/19 15:01:31;;;;;;;;;;;31.90;41.10;;;31.16;42.68;100893.19;12249439;19;19948;-83
2023/06/19 15:05:33;;;;;;;;;;;32.00;40.30;;;31.20;42.93;100893.59;12252743;19;19927;-83
2023/06/19 15:09:34;;;;;;;;;;;31.90;41.30;;;31.23;42.52;100894.00;12248035;19;19930;-83
2023/06/19 15:13:36;;;;;;;;;;;32.00;40.60;;;31.29;42.84;100887.72;12248752;19;19919;-82
2023/06/19 15:17:37;;;;;;;;;;;32.00;41.50;;;31.39;42.67;100883.75;12249914;19;19907;-83
2023/06/19 15:21:39;;;;;;;;;;;32.10;42.00;;;31.42;42.64;100888.72;12247684;19;19919;-83
2023/06/19 15:25:40;;;;;;;;;;;32.20;41.30;;;31.51;42.71;100892.78;12246142;19;20358;-84
2023/06/19 15:29:42;;;;;;;;;;;32.20;41.00;;;31.48;42.26;100885.13;12248213;19;20470;-84
2023/06/19 15:33:43;;;;;;;;;;;32.30;37.90;;;31.53;42.48;100899.63;12248458;19;19915;-83
2023/06/19 15:37:45;;;;;;;;;;;32.30;39.80;;;31.48;42.04;100890.53;12255027;19;19926;-83
2023/06/19 15:41:46;;;;;;;;;;;32.30;40.70;;;31.19;42.19;100848.75;12258889;19;19922;-83
2023/06/19 15:45:48;;;;;;;;;;;32.30;40.30;;;31.43;42.19;100887.66;12259612;19;19922;-81
2023/06/19 15:49:50;;;;;;;;;;;32.20;39.10;;;31.37;41.99;100885.84;12257741;19;19915;-83
2023/06/19 15:53:51;;;;;;;;;;;32.20;41.20;;;31.38;42.04;100891.03;12252308;19;19926;-83
2023/06/19 15:57:53;;;;;;;;;;;32.10;41.10;;;31.37;41.80;100885.84;12260334;19;19962;-83
2023/06/19 16:01:55;;;;;;;;;;;32.10;41.10;;;31.36;42.00;100873.38;12256852;19;19926;-84
2023/06/19 16:05:56;;;;;;;;;;;32.10;40.80;;;31.31;41.94;100874.00;12261109;19;19922;-84
2023/06/19 16:09:58;;;;;;;;;;;32.00;41.30;;;31.30;41.95;100875.88;12248955;19;20472;-83
2023/06/19 16:14:02;;;;;;;;;;;32.00;39.80;;;31.31;41.54;100874.00;12257915;19;19919;-84
2023/06/19 16:18:03;;;;;;;;;;;32.00;40.80;;;31.36;41.61;100882.28;12256750;19;19923;-84
2023/06/19 16:22:05;;;;;;;;;;;32.00;41.10;;;31.31;41.45;100858.63;12257911;19;19928;-85
2023/06/19 16:26:06;;;;;;;;;;;32.00;41.50;;;31.34;41.44;100861.97;12256653;19;19922;-82
2023/06/19 16:30:09;;;;;;;;;;;32.10;40.90;;;31.38;41.35;100872.13;12256267;19;19915;-83
2023/06/19 16:34:10;;;;;;;;;;;32.00;41.50;;;31.39;41.47;100872.97;12247531;19;19911;-83
2023/06/19 16:38:15;;;;;;;;;;;32.10;41.20;;;31.36;41.54;100868.78;12251950;19;19911;-84
2023/06/19 16:42:19;;;;;;;;;;;32.10;41.60;;;31.36;41.62;100871.50;12255839;19;19978;-82
2023/06/19 16:46:21;;;;;;;;;;;32.10;41.10;;;31.39;41.27;100870.25;12245124;19;19930;-84
2023/06/19 16:50:23;;;;;;;;;;;32.00;41.40;;;31.38;41.27;100871.28;12246979;19;19923;-83
2023/06/19 16:54:24;;;;;;;;;;;32.00;41.10;;;31.39;41.48;100878.34;12254055;19;19923;-83
2023/06/19 16:58:26;;;;;;;;;;;32.10;41.00;;;31.37;41.34;100877.75;12254559;19;19915;-82
2023/06/19 17:02:27;;;;;;;;;;;32.00;41.10;;;31.31;41.35;100868.63;12252218;19;19931;-83
2023/06/19 17:06:29;;;;;;;;;;;32.00;40.90;;;31.20;41.28;100863.91;12254403;19;19915;-83
2023/06/19 17:10:31;;;;;;;;;;;32.00;41.20;;;31.24;41.51;100879.44;12257428;19;19918;-83
2023/06/19 17:14:32;;;;;;;;;;;31.90;40.70;;;31.17;41.07;100867.88;12253566;19;19914;-83
2023/06/19 17:18:34;;;;;;;;;;;31.90;40.20;;;31.13;40.98;100866.66;12256908;19;20232;-84
2023/06/19 17:22:36;;;;;;;;;;;31.80;40.90;;;30.97;41.31;100845.56;12252712;19;19922;-82
2023/06/19 17:26:38;;;;;;;;;;;31.70;41.00;;;31.09;41.30;100868.13;12254101;19;19926;-83
2023/06/19 17:30:40;;;;;;;;;;;31.70;41.40;;;31.01;41.21;100858.44;12254591;19;19923;-82
2023/06/19 17:34:41;;;;;;;;;;;31.70;41.50;;;31.04;41.28;100868.78;12255161;19;19907;-84
2023/06/19 17:38:43;;;;;;;;;;;31.60;41.60;;;31.00;41.29;100866.72;12257292;19;20326;-83
2023/06/19 17:42:45;;;;;;;;;;;31.60;41.30;;;30.97;41.23;100864.47;12252813;19;19922;-84
2023/06/19 17:46:46;;;;;;;;;;;31.60;41.50;;;30.92;41.24;100872.38;12257776;19;19918;-82
2023/06/19 17:50:47;;;;;;;;;;;31.50;41.30;;;30.91;41.01;100870.72;12255606;19;19962;-84
2023/06/19 17:54:50;;;;;;;;;;;31.50;41.20;;;30.85;40.92;100875.94;12258282;19;19919;-84
2023/06/19 17:58:52;;;;;;;;;;;31.40;41.40;;;30.80;41.22;100866.81;12251696;19;19926;-84
2023/06/19 18:02:54;;;;;;;;;;;31.30;41.60;;;30.70;40.83;100845.69;12251333;19;20421;-84
2023/06/19 18:06:58;;;;;;;;;;;31.30;40.90;;;30.68;41.23;100861.28;12248528;19;20600;-82